Otay Mesa Border Station Data

Red Flag Warning: No
Fire Weather Zone: 243
SDGE Region: Metro
Lat/Lon: 32.558/-116.9

Observations

Time Wind Speed/Gust Temp(F) RH Fuel Moist Fuel Temp(F) Dewpt(F) Tmax(F) Tmin(F) Accum Precip 10-min Precip SL Press(mb)
6/27 4:50pm 287 9 G 12 85° 29% - - 49° 90.7° 66.4° - - -
6/27 4:40pm 286 8 G 11 85° 31% - - 51° 90.7° 66.4° - - -
6/27 4:30pm 291 8 G 12 85° 32% - - 51° 90.7° 66.4° - - -
6/27 4:20pm 291 9 G 12 84° 34% - - 52° 90.7° 66.4° - - -
6/27 4:10pm 290 8 G 13 84° 34% - - 53° 90.7° 66.4° - - -
6/27 4:00pm 291 9 G 13 84° 35% - - 53° 90.7° 66.4° - - -
6/27 3:50pm 292 10 G 13 84° 35% - - 54° 90.7° 66.4° - - -
6/27 3:40pm 287 10 G 14 84° 38% - - 55° 90.7° 66.4° - - -
6/27 3:30pm 295 10 G 15 84° 37% - - 55° 90.7° 66.4° - - -
6/27 3:20pm 294 10 G 14 84° 36% - - 54° 90.7° 66.4° - - -
6/27 3:10pm 292 10 G 15 84° 35% - - 54° 90.7° 66.4° - - -
6/27 3:00pm 297 11 G 15 84° 34% - - 53° 90.7° 66.4° - - -
6/27 2:50pm 301 10 G 17 84° 37% - - 55° 90.7° 66.4° - - -
6/27 2:40pm 307 10 G 13 84° 37% - - 55° 90.7° 66.4° - - -
6/27 2:30pm 310 10 G 15 84° 38% - - 56° 90.7° 66.4° - - -
6/27 2:20pm 308 10 G 14 85° 37% - - 56° 90.7° 66.4° - - -
6/27 2:10pm 306 11 G 15 85° 36% - - 55° 90.7° 66.4° - - -
6/27 2:00pm 305 12 G 17 85° 37% - - 56° 90.7° 66.4° - - -
6/27 1:50pm 306 11 G 17 86° 35% - - 55° 90.7° 66.4° - - -
6/27 1:40pm 302 10 G 15 87° 33% - - 55° 90.7° 66.4° - - -
6/27 1:30pm 306 9 G 14 87° 35% - - 56° 90.7° 66.4° - - -
6/27 1:20pm 316 10 G 15 87° 35% - - 56° 90.7° 66.4° - - -
6/27 1:10pm 313 10 G 15 87° 37% - - 57° 90.7° 66.4° - - -
6/27 1:00pm 312 10 G 17 88° 36% - - 58° 90.7° 66.4° - - -
6/27 12:50pm 299 9 G 14 88° 34% - - 56° 90.7° 66.4° - - -
6/27 12:40pm 293 9 G 12 88° 32% - - 54° 90.7° 66.4° - - -
6/27 12:30pm 277 9 G 14 88° 33% - - 55° 90.7° 66.4° - - -
6/27 12:20pm 282 9 G 14 88° 35% - - 57° 90.7° 66.4° - - -
6/27 12:10pm 316 9 G 13 87° 37% - - 58° 90.7° 66.4° - - -
6/27 12:00pm 302 10 G 13 87° 35% - - 56° 90.7° 66.4° - - -
6/27 11:50am 300 10 G 15 87° 35% - - 56° 90.7° 66.4° - - -
6/27 11:40am 302 10 G 15 87° 37% - - 57° 90.7° 66.4° - - -
6/27 11:30am 298 10 G 14 89° 34% - - 56° 90.7° 66.4° - - -
6/27 11:20am 282 9 G 13 89° 32% - - 55° 90.7° 66.4° - - -
6/27 11:10am 273 8 G 12 89° 29% - - 53° 90.7° 66.4° - - -
6/27 11:00am 273 7 G 11 89° 29% - - 53° 90.7° 66.4° - - -
6/27 10:50am 281 6 G 11 89° 31% - - 54° 90.1° 66.4° - - -
6/27 10:40am 294 6 G 12 88° 33% - - 56° 89.6° 66.4° - - -
6/27 10:30am 293 6 G 10 88° 36% - - 57° 89.1° 66.4° - - -
6/27 10:20am 286 6 G 10 87° 37% - - 57° 89.1° 66.4° - - -
6/27 10:10am 298 7 G 12 86° 36% - - 56° 89.1° 66.4° - - -
6/27 10:00am 299 8 G 11 87° 32% - - 54° 89.1° 66.4° - - -
6/27 9:50am 272 6 G 10 88° 22% - - 45° 89.1° 66.4° - - -
6/27 9:40am 273 5 G 9 88° 27% - - 49° 88.1° 66.4° - - -
6/27 9:30am 239 4 G 8 86° 28% - - 49° 87.9° 66.4° - - -
6/27 9:20am 258 4 G 7 86° 27% - - 48° 86.4° 66.4° - - -
6/27 9:10am 228 4 G 7 84° 28% - - 47° 84.9° 66.4° - - -
6/27 8:50am 232 2 G 4 83° 33% - - 50° 83.5° 66.4° - - -
6/27 8:40am 269 1 G 4 81° 34% - - 51° 83° 66.4° - - -
6/27 8:30am 297 1 G 3 80° 36% - - 50° 81° 66.4° - - -
6/27 8:20am 240 2 G 3 78° 38% - - 50° 78.6° 66.4° - - -
6/27 8:10am 305 1 G 3 77° 39% - - 50° 77.7° 66.4° - - -
6/27 8:00am 215 1 G 3 76° 41% - - 50° 77.2° 66.4° - - -
6/27 7:50am 250 0 G 2 74° 45% - - 52° 75.3° 66.4° - - -
6/27 7:40am 193 1 G 2 74° 47% - - 52° 75.3° 66.4° - - -
6/27 7:30am 222 1 G 2 72° 51% - - 53° 74.1° 66.4° - - -
6/27 7:20am 225 1 G 2 72° 53% - - 54° 74.1° 66.4° - - -
6/27 7:10am 35 1 G 2 71° 54% - - 53° 74.1° 66.4° - - -
6/27 7:00am 36 1 G 2 69° 55% - - 52° 74.1° 66.4° - - -
6/27 6:50am 43 2 G 3 68° 57% - - 52° 74.1° 66.4° - - -
6/27 6:40am 44 2 G 4 68° 57% - - 52° 74.1° 66.4° - - -
6/27 6:30am 33 2 G 3 67° 57% - - 51° 74.1° 66.4° - - -
6/27 6:20am 31 2 G 3 67° 59% - - 52° 74.1° 66.4° - - -
6/27 6:10am 9 0 G 1 67° 59% - - 53° 74.1° 66.6° - - -
6/27 6:00am 324 0 G 1 68° 56% - - 52° 74.1° 66.6° - - -
6/27 5:50am 22 2 G 3 68° 55% - - 52° 74.1° 66.6° - - -
6/27 5:40am 28 3 G 4 67° 57% - - 52° 74.1° 66.6° - - -
6/27 5:30am 26 1 G 4 68° 58% - - 53° 74.1° 67.1° - - -
6/27 5:20am 284 2 G 3 69° 57% - - 54° 74.1° 67.7° - - -
6/27 5:10am 319 2 G 3 68° 59% - - 53° 74.1° 67.7° - - -
6/27 5:00am 28 2 G 3 69° 56% - - 53° 74.1° 68.4° - - -
6/27 4:50am 52 3 G 4 72° 50% - - 52° 74.1° 69.4° - - -
6/27 4:40am 49 1 G 2 72° 51% - - 53° 74.1° 69.4° - - -
6/27 4:30am 24 3 G 4 71° 53% - - 54° 74.1° 69.4° - - -
6/27 4:20am 38 3 G 5 72° 54% - - 54° 74.1° 69.4° - - -
6/27 4:10am 44 4 G 5 71° 56% - - 54° 74.1° 69.4° - - -
6/27 4:00am 52 3 G 4 70° 58% - - 55° 74.1° 69.4° - - -
6/27 3:50am 83 1 G 3 71° 60% - - 57° 74.1° 69.4° - - -
6/27 3:40am 95 2 G 3 71° 61% - - 57° 74.1° 69.4° - - -
6/27 3:30am 79 3 G 4 72° 56% - - 56° 74.1° 69.4° - - -
6/27 3:20am 52 3 G 5 72° 58% - - 57° 74.1° 69.4° - - -
6/27 3:10am 33 3 G 4 71° 64% - - 58° 74.1° 69.4° - - -
6/27 3:00am 39 3 G 4 70° 64% - - 58° 74.1° 69.4° - - -
6/27 2:50am 43 3 G 3 70° 64% - - 57° 74.1° 69.4° - - -
6/27 2:40am 72 2 G 3 70° 65% - - 58° 74.1° 69.4° - - -
6/27 2:30am 105 3 G 4 71° 63% - - 57° 74.1° 69.6° - - -
6/27 2:20am 24 2 G 3 70° 65% - - 58° 74.1° 69.7° - - -
6/27 2:10am 30 1 G 3 72° 62% - - 58° 74.1° 70.6° - - -
6/27 2:00am 34 2 G 4 72° 60% - - 58° 74.1° 70.6° - - -
6/27 1:50am 33 2 G 4 72° 59% - - 57° 74.1° 70.6° - - -
6/27 1:40am 25 2 G 4 73° 59% - - 58° 74.1° 70.6° - - -
6/27 1:30am 29 4 G 5 72° 60% - - 57° 73.4° 70.6° - - -
6/27 1:20am 61 2 G 4 72° 58% - - 57° 73.4° 70.6° - - -
6/27 1:10am 36 2 G 4 72° 61% - - 57° 73.1° 70.6° - - -
6/27 1:00am 50 2 G 4 72° 61% - - 58° 72.7° 70.6° - - -
6/27 12:50am 52 2 G 4 72° 62% - - 58° 72.4° 70.6° - - -
6/27 12:40am 52 2 G 4 72° 62% - - 58° 72.4° 70.6° - - -
6/27 12:30am 56 2 G 4 72° 60% - - 57° 72.3° 70.6° - - -
6/27 12:20am 47 2 G 3 72° 62% - - 58° 72.3° 70.6° - - -
6/27 12:10am 56 2 G 4 71° 63% - - 58° 72.3° 70.6° - - -
6/27 12:00am 136 2 G 2 72° 62% - - 58° 92.2° 65.3° - - -
6/26 11:50pm 58 2 G 4 73° 58% - - 58° 92.2° 65.3° - - -
6/26 11:40pm 53 4 G 5 73° 57% - - 57° 92.2° 65.3° - - -
6/26 11:30pm 58 5 G 6 73° 58% - - 58° 92.2° 65.3° - - -
6/26 11:20pm 67 5 G 5 72° 61% - - 58° 92.2° 65.3° - - -
6/26 11:10pm 101 3 G 4 73° 61% - - 59° 92.2° 65.3° - - -
6/26 11:00pm 49 1 G 2 72° 63% - - 59° 92.2° 65.3° - - -
6/26 10:50pm 11 2 G 3 72° 63% - - 59° 92.2° 65.3° - - -
6/26 10:40pm 29 3 G 4 72° 62% - - 58° 92.2° 65.3° - - -
6/26 10:30pm 28 1 G 2 72° 62% - - 59° 92.2° 65.3° - - -
6/26 10:20pm 37 2 G 3 73° 60% - - 58° 92.2° 65.3° - - -
6/26 10:10pm 55 2 G 3 74° 59% - - 59° 92.2° 65.3° - - -
6/26 10:00pm 40 3 G 3 73° 61% - - 59° 92.2° 65.3° - - -
6/26 9:50pm 47 3 G 4 73° 61% - - 59° 92.2° 65.3° - - -
6/26 9:40pm 43 2 G 3 73° 62% - - 59° 92.2° 65.3° - - -
6/26 9:30pm 34 2 G 3 73° 63% - - 59° 92.2° 65.3° - - -
6/26 9:20pm 38 2 G 4 72° 63% - - 59° 92.2° 65.3° - - -
6/26 9:10pm 53 2 G 4 72° 65% - - 60° 92.2° 65.3° - - -
6/26 9:00pm 56 2 G 3 71° 66% - - 60° 92.2° 65.3° - - -
6/26 8:50pm 86 1 G 3 71° 67% - - 59° 92.2° 65.3° - - -
6/26 8:40pm 124 2 G 4 71° 67% - - 59° 92.2° 65.3° - - -
6/26 8:30pm 55 2 G 3 70° 67% - - 58° 92.2° 65.3° - - -
6/26 8:20pm 342 3 G 5 72° 65% - - 59° 92.2° 65.3° - - -
6/26 8:10pm 298 6 G 7 72° 64% - - 60° 92.2° 65.3° - - -
6/26 8:00pm 282 6 G 7 74° 61% - - 60° 92.2° 65.3° - - -
6/26 7:50pm 286 6 G 7 75° 59% - - 60° 92.2° 65.3° - - -
6/26 7:40pm 271 5 G 8 76° 57% - - 60° 92.2° 65.3° - - -
6/26 7:30pm 261 6 G 8 77° 55% - - 60° 92.2° 65.3° - - -
6/26 7:20pm 250 7 G 11 78° 54% - - 60° 92.2° 65.3° - - -
6/26 7:10pm 273 8 G 11 78° 53% - - 60° 92.2° 65.3° - - -
6/26 7:00pm 288 9 G 13 79° 52% - - 60° 92.2° 65.3° - - -
6/26 6:50pm 294 10 G 14 80° 50% - - 60° 92.2° 65.3° - - -
6/26 6:40pm 298 11 G 14 80° 49% - - 60° 92.2° 65.3° - - -
6/26 6:30pm 299 11 G 15 81° 49% - - 60° 92.2° 65.3° - - -
6/26 6:20pm 297 12 G 15 82° 48% - - 60° 92.2° 65.3° - - -
6/26 6:10pm 296 12 G 15 82° 48% - - 61° 92.2° 65.3° - - -
6/26 6:00pm 296 13 G 16 83° 47% - - 61° 92.2° 65.3° - - -
6/26 5:50pm 294 12 G 15 84° 46% - - 61° 92.2° 65.3° - - -
6/26 5:40pm 291 11 G 15 84° 46% - - 60° 92.2° 65.3° - - -
6/26 5:30pm 291 12 G 17 84° 45% - - 60° 92.2° 65.3° - - -
6/26 5:20pm 289 12 G 15 85° 44% - - 60° 92.2° 65.3° - - -
6/26 5:10pm 296 11 G 17 85° 43% - - 60° 92.2° 65.3° - - -
6/26 5:00pm 286 12 G 17 86° 42% - - 60° 92.2° 65.3° - - -
6/26 4:50pm 280 12 G 16 87° 41% - - 60° 92.2° 65.3° - - -
6/26 4:40pm 287 13 G 17 87° 40% - - 60° 92.2° 65.3° - - -
6/26 4:30pm 296 12 G 16 87° 40% - - 60° 92.2° 65.3° - - -
6/26 4:20pm 298 12 G 16 88° 38% - - 59° 92.2° 65.3° - - -
6/26 4:10pm 304 12 G 15 88° 36% - - 58° 92.2° 65.3° - - -
6/26 4:00pm 286 12 G 16 88° 35% - - 57° 92.2° 65.3° - - -
6/26 3:50pm 286 12 G 15 88° 34% - - 57° 92.2° 65.3° - - -
6/26 3:40pm 285 11 G 16 88° 33% - - 56° 92.2° 65.3° - - -
6/26 3:30pm 295 11 G 17 89° 33% - - 56° 92.2° 65.3° - - -
6/26 3:20pm 284 11 G 15 89° 33% - - 56° 92.2° 65.3° - - -
6/26 3:10pm 290 12 G 18 89° 33% - - 56° 92.2° 65.3° - - -
6/26 3:00pm 292 12 G 17 89° 33% - - 56° 92.2° 65.3° - - -
6/26 2:50pm 291 12 G 17 91° 32% - - 57° 92.2° 65.3° - - -
6/26 2:40pm 306 12 G 17 91° 33% - - 58° 92.2° 65.3° - - -
6/26 2:30pm 304 12 G 17 91° 32% - - 57° 92.1° 65.3° - - -
6/26 2:20pm 281 13 G 17 90° 32% - - 56° 91.9° 65.3° - - -
6/26 2:10pm 286 12 G 18 91° 31% - - 56° 91.9° 65.3° - - -
6/26 2:00pm 297 13 G 18 90° 30% - - 55° 91.1° 65.3° - - -
6/26 1:50pm 292 13 G 18 90° 32% - - 56° 90.7° 65.3° - - -
6/26 1:40pm 294 13 G 18 90° 36% - - 59° 90.5° 65.3° - - -
6/26 1:30pm 297 12 G 16 89° 38% - - 60° 89.7° 65.3° - - -
6/26 1:20pm 287 11 G 15 88° 37% - - 58° 89.1° 65.3° - - -
6/26 1:10pm 295 10 G 16 88° 37% - - 59° 88.9° 65.3° - - -
6/26 1:00pm 291 10 G 14 88° 38% - - 59° 88.9° 65.3° - - -
6/26 12:50pm 290 8 G 13 88° 39% - - 59° 88.9° 65.3° - - -
6/26 12:40pm 303 9 G 15 87° 40% - - 60° 88.4° 65.3° - - -
6/26 12:30pm 294 9 G 13 86° 41% - - 60° 88.3° 65.3° - - -
6/26 12:20pm 291 9 G 13 85° 43% - - 61° 88.3° 65.3° - - -
6/26 12:10pm 300 9 G 14 86° 42% - - 61° 88.3° 65.3° - - -
6/26 12:00pm 293 10 G 13 86° 42% - - 60° 88.3° 65.3° - - -
6/26 11:50am 287 10 G 15 86° 43% - - 61° 88.3° 65.3° - - -
6/26 11:40am 294 9 G 13 85° 42% - - 60° 88.3° 65.3° - - -
6/26 11:30am 300 9 G 13 83° 46% - - 60° 88.3° 65.3° - - -
6/26 11:20am 292 11 G 16 83° 46% - - 61° 88.3° 65.3° - - -
6/26 11:10am 304 10 G 13 83° 47% - - 61° 88.3° 65.3° - - -
6/26 11:00am 292 10 G 15 82° 49% - - 61° 88.3° 65.3° - - -
6/26 10:50am 297 10 G 14 82° 50% - - 62° 88.3° 65.3° - - -
6/26 10:40am 296 10 G 16 82° 50% - - 62° 88.3° 65.3° - - -
6/26 10:30am 295 11 G 14 82° 50% - - 61° 88.3° 65.3° - - -
6/26 10:20am 288 12 G 16 82° 49% - - 61° 88.3° 65.3° - - -
6/26 10:10am 302 11 G 15 82° 49% - - 61° 88.3° 65.3° - - -
6/26 10:00am 302 11 G 15 82° 49% - - 61° 88.3° 65.3° - - -
6/26 9:50am 296 11 G 15 83° 48% - - 61° 88.3° 65.3° - - -
6/26 9:40am 302 9 G 13 84° 45% - - 60° 88.3° 65.3° - - -
6/26 9:30am 304 8 G 13 87° 37% - - 57° 88.3° 65.3° - - -
6/26 9:20am 280 5 G 8 87° 33% - - 55° 87.6° 65.3° - - -
6/26 9:10am 270 3 G 6 85° 36% - - 55° 86.3° 65.3° - - -
6/26 9:00am 271 4 G 6 85° 37% - - 56° 85.6° 65.3° - - -
6/26 8:50am 250 3 G 6 84° 39% - - 56° 84.9° 65.3° - - -
6/26 8:40am 216 2 G 4 83° 41% - - 57° 83.9° 65.3° - - -
6/26 8:30am 242 2 G 4 81° 43% - - 57° 82.4° 65.3° - - -
6/26 8:20am 259 2 G 5 80° 45% - - 57° 80.9° 65.3° - - -
6/26 8:10am 247 2 G 4 78° 48% - - 57° 79.4° 65.3° - - -
6/26 8:00am 209 3 G 5 77° 51% - - 58° 78.5° 65.3° - - -
6/26 7:50am 228 3 G 4 76° 51% - - 57° 76.7° 65.3° - - -
6/26 7:40am 285 2 G 3 75° 53% - - 57° 76.4° 65.3° - - -
6/26 7:30am 294 2 G 3 73° 57% - - 57° 74.5° 65.3° - - -
6/26 7:20am 296 1 G 3 72° 61% - - 58° 72.9° 65.3° - - -
6/26 7:10am 11 0 G 2 72° 61% - - 58° 72.9° 65.3° - - -
6/26 7:00am 53 1 G 3 70° 63% - - 57° 71.4° 65.3° - - -
6/26 6:50am 6 1 G 3 70° 66% - - 58° 71.2° 65.3° - - -
6/26 6:40am 138 1 G 3 70° 62% - - 56° 71.2° 65.3° - - -
6/26 6:30am 88 2 G 3 68° 69% - - 58° 70.4° 65.3° - - -
6/26 6:20am 26 1 G 3 68° 71% - - 59° 70.4° 65.3° - - -
6/26 6:10am 32 3 G 4 68° 73% - - 58° 70.4° 65.3° - - -
6/26 6:00am 353 0 G 2 68° 72% - - 58° 70.4° 65.3° - - -